createdAt,value
2022-08-31T00:00:36.762Z,2.97
2022-08-31T00:03:22.908Z,2.97
2022-08-31T00:05:51.915Z,2.88
2022-08-31T00:08:20.065Z,2.72
2022-08-31T00:10:50.265Z,2.70
2022-08-31T00:13:18.782Z,2.78
2022-08-31T00:15:49.161Z,2.92
2022-08-31T00:18:18.592Z,2.92
2022-08-31T00:20:48.731Z,2.78
2022-08-31T00:23:18.239Z,2.67
2022-08-31T00:25:49.465Z,2.85
2022-08-31T00:28:18.890Z,3.20
2022-08-31T00:30:49.474Z,2.58
2022-08-31T00:33:17.887Z,3.13
2022-08-31T00:35:46.543Z,3.17
2022-08-31T00:38:15.617Z,3.10
2022-08-31T00:40:46.964Z,2.60
2022-08-31T00:43:36.113Z,3.35
2022-08-31T00:46:06.720Z,2.83
2022-08-31T00:48:36.299Z,2.90
2022-08-31T00:51:05.104Z,2.97
2022-08-31T00:53:33.735Z,2.95
2022-08-31T00:56:02.317Z,2.97
2022-08-31T00:58:30.513Z,2.72
2022-08-31T01:01:00.201Z,2.97
2022-08-31T01:03:30.208Z,2.80
2022-08-31T01:05:58.996Z,3.13
2022-08-31T01:08:30.791Z,3.03
2022-08-31T01:10:59.857Z,3.13
2022-08-31T01:13:28.564Z,3.42
2022-08-31T01:16:01.997Z,2.83
2022-08-31T01:18:34.255Z,3.00
2022-08-31T01:21:20.767Z,3.30
2022-08-31T01:23:50.548Z,2.97
2022-08-31T01:26:22.496Z,2.85
2022-08-31T01:28:52.687Z,3.20
2022-08-31T01:31:24.635Z,3.22
2022-08-31T01:33:53.428Z,3.05
2022-08-31T01:36:22.324Z,2.88
2022-08-31T01:38:54.545Z,3.28
2022-08-31T01:41:22.823Z,3.20
2022-08-31T01:43:53.464Z,3.17
2022-08-31T01:46:22.596Z,2.92
2022-08-31T01:48:52.770Z,3.50
2022-08-31T01:51:23.107Z,3.20
2022-08-31T01:53:54.928Z,3.10
2022-08-31T01:56:26.484Z,3.33
2022-08-31T01:58:55.584Z,2.90
2022-08-31T02:01:33.847Z,2.90
2022-08-31T02:04:03.412Z,3.15
2022-08-31T02:06:32.416Z,3.47
2022-08-31T02:09:03.305Z,3.58
2022-08-31T02:11:31.451Z,3.30
2022-08-31T02:14:00.547Z,3.05
2022-08-31T02:16:29.415Z,3.38
2022-08-31T02:18:57.813Z,3.25
2022-08-31T02:21:26.726Z,3.25
2022-08-31T02:23:55.263Z,3.30
2022-08-31T02:26:25.945Z,3.47
2022-08-31T02:28:54.713Z,3.22
2022-08-31T02:31:23.516Z,2.83
2022-08-31T02:33:52.149Z,2.72
2022-08-31T02:36:20.725Z,3.17
2022-08-31T02:38:49.389Z,3.35
2022-08-31T02:41:18.307Z,3.55
2022-08-31T02:43:48.333Z,2.88
2022-08-31T02:46:16.690Z,3.20
2022-08-31T02:48:45.326Z,3.17
2022-08-31T02:51:13.684Z,3.00
2022-08-31T02:53:42.283Z,3.47
2022-08-31T02:56:14.675Z,3.38
2022-08-31T02:58:42.844Z,3.50
2022-08-31T03:01:12.512Z,3.63
2022-08-31T03:03:41.155Z,3.38
2022-08-31T03:06:14.647Z,3.25
2022-08-31T03:08:43.429Z,3.65
2022-08-31T03:11:11.677Z,3.78
2022-08-31T03:13:40.925Z,3.60
2022-08-31T03:16:09.884Z,3.50
2022-08-31T03:18:39.943Z,3.58
2022-08-31T03:21:08.226Z,3.22
2022-08-31T03:23:36.506Z,3.30
2022-08-31T03:26:05.848Z,3.90
2022-08-31T03:28:34.300Z,3.28
2022-08-31T03:31:03.041Z,3.65
2022-08-31T03:33:31.169Z,3.40
2022-08-31T03:36:03.637Z,3.55
2022-08-31T03:38:32.301Z,3.60
2022-08-31T03:41:00.874Z,3.70
2022-08-31T03:43:29.513Z,3.53
2022-08-31T03:45:58.101Z,4.15
2022-08-31T03:48:26.697Z,3.20
2022-08-31T03:50:55.829Z,3.92
2022-08-31T03:53:25.532Z,3.50
2022-08-31T03:56:01.482Z,3.28
2022-08-31T03:58:29.941Z,3.33
2022-08-31T04:00:58.827Z,3.53
2022-08-31T04:03:27.115Z,3.80
2022-08-31T04:05:55.737Z,3.53
2022-08-31T04:08:25.711Z,3.22
2022-08-31T04:10:55.015Z,3.90
2022-08-31T04:13:29.476Z,3.90
2022-08-31T04:16:01.450Z,4.22
2022-08-31T04:18:29.623Z,3.45
2022-08-31T04:20:58.231Z,3.60
2022-08-31T04:23:30.048Z,3.10
2022-08-31T04:26:00.577Z,3.50
2022-08-31T04:28:29.235Z,3.08
2022-08-31T04:30:57.512Z,3.60
2022-08-31T04:33:26.105Z,3.30
2022-08-31T04:35:54.253Z,3.40
2022-08-31T04:38:22.834Z,3.00
2022-08-31T04:40:52.506Z,3.00
2022-08-31T04:43:21.186Z,3.15
2022-08-31T04:45:52.875Z,3.40
2022-08-31T04:48:21.038Z,4.00
2022-08-31T04:50:51.275Z,3.38
2022-08-31T04:53:19.579Z,3.20
2022-08-31T04:55:47.881Z,3.30
2022-08-31T04:58:20.858Z,3.75
2022-08-31T05:00:49.019Z,3.50
2022-08-31T05:03:18.061Z,3.20
2022-08-31T05:05:49.710Z,3.22
2022-08-31T05:08:18.688Z,3.47
2022-08-31T05:10:49.079Z,3.47
2022-08-31T05:13:18.871Z,3.85
2022-08-31T05:15:47.893Z,4.20
2022-08-31T05:18:19.280Z,3.58
2022-08-31T05:20:48.350Z,3.63
2022-08-31T05:23:17.010Z,3.47
2022-08-31T05:25:45.634Z,3.88
2022-08-31T05:28:14.178Z,3.33
2022-08-31T05:30:46.598Z,3.78
2022-08-31T05:33:15.408Z,3.20
2022-08-31T05:35:43.980Z,3.28
2022-08-31T05:38:12.755Z,3.42
2022-08-31T05:40:41.099Z,3.70
2022-08-31T05:43:09.772Z,3.60
2022-08-31T05:45:38.432Z,3.53
2022-08-31T05:48:08.550Z,3.50
2022-08-31T05:50:37.751Z,3.42
2022-08-31T05:53:06.558Z,3.47
2022-08-31T05:55:34.803Z,3.15
2022-08-31T05:58:03.697Z,3.67
2022-08-31T06:00:32.302Z,3.60
2022-08-31T06:03:00.930Z,3.50
2022-08-31T06:05:31.357Z,3.60
2022-08-31T06:07:59.994Z,3.25
2022-08-31T06:10:28.277Z,3.25
2022-08-31T06:12:56.878Z,3.75
2022-08-31T06:15:25.019Z,3.60
2022-08-31T06:17:53.637Z,3.58
2022-08-31T06:20:21.982Z,3.25
2022-08-31T06:22:51.554Z,3.28
2022-08-31T06:25:20.224Z,3.97
2022-08-31T06:27:50.434Z,3.20
2022-08-31T06:30:22.170Z,3.45
2022-08-31T06:32:50.326Z,3.33
2022-08-31T06:35:18.523Z,3.60
2022-08-31T06:37:47.153Z,3.67
2022-08-31T06:40:16.798Z,3.50
2022-08-31T06:42:45.398Z,3.50
2022-08-31T06:45:13.823Z,3.92
2022-08-31T06:47:42.413Z,3.42
2022-08-31T06:50:12.881Z,3.40
2022-08-31T06:52:41.132Z,3.47
2022-08-31T06:55:11.199Z,3.70
2022-08-31T06:57:40.712Z,3.67
2022-08-31T07:00:10.049Z,3.10
2022-08-31T07:02:38.278Z,3.78
2022-08-31T07:05:07.194Z,3.25
2022-08-31T07:07:35.403Z,3.83
2022-08-31T07:10:03.895Z,3.42
2022-08-31T07:12:32.413Z,3.58
2022-08-31T07:15:03.159Z,4.00
2022-08-31T07:17:33.253Z,3.30
2022-08-31T07:20:01.803Z,3.80
2022-08-31T07:22:29.946Z,3.70
2022-08-31T07:24:58.543Z,3.47
2022-08-31T07:27:26.687Z,3.67
2022-08-31T07:29:55.252Z,3.53
2022-08-31T07:32:25.296Z,4.03
2022-08-31T07:34:59.810Z,3.35
2022-08-31T07:37:46.347Z,3.60
2022-08-31T07:40:32.133Z,3.50
2022-08-31T07:43:04.793Z,3.45
2022-08-31T07:45:37.250Z,3.20
2022-08-31T07:48:08.659Z,3.25
2022-08-31T07:50:37.898Z,3.88
2022-08-31T07:53:09.233Z,4.30
2022-08-31T07:55:37.811Z,3.70
2022-08-31T07:58:08.350Z,3.70
2022-08-31T08:00:40.147Z,3.38
2022-08-31T08:03:13.568Z,3.00
2022-08-31T08:05:42.315Z,3.20
2022-08-31T08:08:13.904Z,2.80
2022-08-31T08:10:51.901Z,3.20
2022-08-31T08:13:21.189Z,2.42
2022-08-31T08:15:52.199Z,3.30
2022-08-31T08:18:22.644Z,2.85
2022-08-31T08:20:52.542Z,3.58
2022-08-31T08:23:26.861Z,2.83
2022-08-31T08:25:57.827Z,3.10
2022-08-31T08:28:39.057Z,2.60
2022-08-31T08:31:12.320Z,2.90
2022-08-31T08:33:42.380Z,2.70
2022-08-31T08:36:10.723Z,2.75
2022-08-31T08:38:42.896Z,3.10
2022-08-31T08:41:15.331Z,3.10
2022-08-31T08:43:50.156Z,2.90
2022-08-31T08:46:37.102Z,2.95
2022-08-31T08:49:16.188Z,2.63
2022-08-31T08:51:44.923Z,2.72
2022-08-31T08:54:16.361Z,2.85
2022-08-31T08:56:49.453Z,2.78
2022-08-31T08:59:19.847Z,2.30
2022-08-31T09:01:50.765Z,2.50
2022-08-31T09:04:37.164Z,2.70
2022-08-31T09:07:31.337Z,2.78
2022-08-31T09:10:06.395Z,3.00
2022-08-31T09:12:45.310Z,2.72
2022-08-31T09:15:36.641Z,2.72
2022-08-31T09:18:25.344Z,2.78
2022-08-31T09:21:20.867Z,2.50
2022-08-31T09:23:55.485Z,2.60
2022-08-31T09:26:26.015Z,2.78
2022-08-31T09:28:55.234Z,2.70
2022-08-31T09:31:38.015Z,2.90
2022-08-31T09:34:14.445Z,2.50
2022-08-31T09:36:44.396Z,2.90
2022-08-31T09:39:18.298Z,2.70
2022-08-31T09:41:48.412Z,2.80
2022-08-31T09:44:26.834Z,3.00
2022-08-31T09:47:01.439Z,2.83
2022-08-31T09:49:31.813Z,2.63
2022-08-31T09:52:21.375Z,2.67
2022-08-31T09:55:14.579Z,2.45
2022-08-31T09:57:46.786Z,2.88
2022-08-31T10:00:16.943Z,2.35
2022-08-31T10:02:47.164Z,2.90
2022-08-31T10:05:32.823Z,2.92
2022-08-31T10:08:11.280Z,3.22
2022-08-31T10:10:43.782Z,2.97
2022-08-31T10:13:18.538Z,2.78
2022-08-31T10:15:53.340Z,2.70
2022-08-31T10:18:27.674Z,2.47
2022-08-31T10:21:06.138Z,2.45
2022-08-31T10:23:54.674Z,2.50
2022-08-31T10:26:32.197Z,2.75
2022-08-31T10:29:06.333Z,2.28
2022-08-31T10:31:48.102Z,2.50
2022-08-31T10:34:41.964Z,3.17
2022-08-31T10:37:16.756Z,2.40
2022-08-31T10:39:50.015Z,2.25
2022-08-31T10:42:26.378Z,2.42
2022-08-31T10:44:59.989Z,2.53
2022-08-31T10:47:41.868Z,2.20
2022-08-31T10:50:11.600Z,2.40
2022-08-31T10:52:49.522Z,2.33
2022-08-31T10:55:30.204Z,2.60
2022-08-31T10:58:09.240Z,2.28
2022-08-31T11:00:47.101Z,2.45
2022-08-31T11:03:22.031Z,1.85
2022-08-31T11:05:58.463Z,2.20
2022-08-31T11:08:49.530Z,1.92
2022-08-31T11:11:29.417Z,2.50
2022-08-31T11:14:16.238Z,2.20
2022-08-31T11:17:00.219Z,2.55
2022-08-31T11:19:43.658Z,2.40
2022-08-31T11:22:47.249Z,2.33
2022-08-31T11:25:35.181Z,2.22
2022-08-31T11:28:09.685Z,2.20
2022-08-31T11:30:50.166Z,2.30
2022-08-31T11:33:28.597Z,2.10
2022-08-31T11:36:07.265Z,2.20
2022-08-31T11:38:43.521Z,2.05
2022-08-31T11:41:12.534Z,2.40
2022-08-31T11:43:51.083Z,2.20
2022-08-31T11:47:01.555Z,2.50
2022-08-31T11:49:48.397Z,2.00
2022-08-31T11:52:35.092Z,2.30
2022-08-31T11:55:13.912Z,2.08
2022-08-31T11:58:20.137Z,2.00
2022-08-31T12:00:58.847Z,1.98
2022-08-31T12:03:56.199Z,2.22
2022-08-31T12:07:11.209Z,2.47
2022-08-31T12:10:01.645Z,2.20
2022-08-31T12:12:56.523Z,2.40
2022-08-31T12:15:33.602Z,2.33
2022-08-31T12:18:19.899Z,2.20
2022-08-31T12:21:16.064Z,2.33
2022-08-31T12:23:56.420Z,2.10
2022-08-31T12:26:45.570Z,1.95
2022-08-31T12:29:26.695Z,2.20
2022-08-31T12:32:22.585Z,2.45
2022-08-31T12:34:59.758Z,2.30
2022-08-31T12:37:30.272Z,2.38
2022-08-31T12:40:20.856Z,2.20
2022-08-31T12:43:05.837Z,1.98
2022-08-31T12:46:02.913Z,2.28
2022-08-31T12:48:51.588Z,2.50
2022-08-31T12:51:35.264Z,2.10
2022-08-31T12:54:15.842Z,2.40
2022-08-31T12:56:53.590Z,2.35
2022-08-31T12:59:57.468Z,2.05
2022-08-31T13:02:22.738Z,2.17
2022-08-31T13:04:51.569Z,2.58
2022-08-31T13:07:29.934Z,2.50
2022-08-31T13:10:07.646Z,2.30
2022-08-31T13:12:36.356Z,2.17
2022-08-31T13:15:05.543Z,2.08
2022-08-31T13:17:39.610Z,2.20
2022-08-31T13:20:09.418Z,2.65
2022-08-31T13:22:42.188Z,2.40
2022-08-31T13:25:20.160Z,2.25
2022-08-31T13:27:50.673Z,2.58
2022-08-31T13:30:22.483Z,2.17
2022-08-31T13:32:55.185Z,2.40
2022-08-31T13:35:28.295Z,2.40
2022-08-31T13:38:05.676Z,2.33
2022-08-31T13:40:37.732Z,2.70
2022-08-31T13:43:08.509Z,2.72
2022-08-31T13:45:43.514Z,2.72
2022-08-31T13:48:16.639Z,2.75
2022-08-31T13:50:52.991Z,2.90
2022-08-31T13:53:41.030Z,2.80
2022-08-31T13:56:38.621Z,3.17
2022-08-31T13:59:29.571Z,2.88
2022-08-31T14:02:00.081Z,3.22
2022-08-31T14:04:48.693Z,3.25
2022-08-31T14:07:21.946Z,2.90
2022-08-31T14:09:55.228Z,3.50
2022-08-31T14:12:36.518Z,3.35
2022-08-31T14:15:20.971Z,3.35
2022-08-31T14:21:09.995Z,3.38
2022-08-31T14:23:35.934Z,3.33
2022-08-31T14:26:11.771Z,3.55
2022-08-31T14:28:44.140Z,3.40
2022-08-31T14:31:24.489Z,3.65
2022-08-31T14:34:08.440Z,3.53
2022-08-31T14:36:43.719Z,3.28
2022-08-31T14:39:12.594Z,3.33
2022-08-31T14:41:42.146Z,3.42
2022-08-31T14:44:10.495Z,3.55
2022-08-31T14:46:40.858Z,3.42
2022-08-31T14:49:11.277Z,2.95
2022-08-31T14:51:39.994Z,2.95
2022-08-31T14:54:09.138Z,3.35
2022-08-31T14:56:46.005Z,2.95
2022-08-31T14:59:18.148Z,3.47
2022-08-31T15:01:47.523Z,3.45
2022-08-31T15:04:18.786Z,3.20
2022-08-31T15:06:51.515Z,3.13
2022-08-31T15:09:19.639Z,3.65
2022-08-31T15:11:47.829Z,3.40
2022-08-31T15:14:17.350Z,3.13
2022-08-31T15:16:47.437Z,3.22
2022-08-31T15:19:17.105Z,2.70
2022-08-31T15:21:52.789Z,2.95
2022-08-31T15:24:31.589Z,2.92
2022-08-31T15:27:00.063Z,3.47
2022-08-31T15:29:30.507Z,2.90
2022-08-31T15:31:59.898Z,3.33
2022-08-31T15:34:31.133Z,3.63
2022-08-31T15:37:02.296Z,3.55
2022-08-31T15:39:33.031Z,3.00
2022-08-31T15:42:03.293Z,3.03
2022-08-31T15:44:35.271Z,3.10
2022-08-31T15:47:35.679Z,3.05
2022-08-31T15:50:05.502Z,2.60
2022-08-31T15:52:35.063Z,2.72
2022-08-31T15:55:04.307Z,2.88
2022-08-31T15:57:32.655Z,2.85
2022-08-31T16:00:02.702Z,2.53
2022-08-31T16:02:33.251Z,2.95
2022-08-31T16:05:03.502Z,3.10
2022-08-31T16:07:33.178Z,2.55
2022-08-31T16:10:01.909Z,2.70
2022-08-31T16:12:30.591Z,2.90
2022-08-31T16:14:58.768Z,2.30
2022-08-31T16:17:28.763Z,2.45
2022-08-31T16:19:57.245Z,2.78
2022-08-31T16:22:30.715Z,2.25
2022-08-31T16:25:00.275Z,2.50
2022-08-31T16:27:28.904Z,2.15
2022-08-31T16:29:57.434Z,2.30
2022-08-31T16:32:27.876Z,2.50
2022-08-31T16:34:56.879Z,2.72
2022-08-31T16:37:25.400Z,2.55
2022-08-31T16:39:53.734Z,2.60
2022-08-31T16:42:22.337Z,2.40
2022-08-31T16:44:51.059Z,2.30
2022-08-31T16:47:19.912Z,2.67
2022-08-31T16:49:49.085Z,2.13
2022-08-31T16:52:22.015Z,2.53
2022-08-31T16:54:52.231Z,2.33
2022-08-31T16:57:22.915Z,2.55
2022-08-31T16:59:52.185Z,2.50
2022-08-31T17:02:21.603Z,2.55
2022-08-31T17:04:53.022Z,2.28
2022-08-31T17:07:23.738Z,2.50
2022-08-31T17:09:52.509Z,2.42
2022-08-31T17:12:26.417Z,2.53
2022-08-31T17:14:56.101Z,2.30
2022-08-31T17:17:27.799Z,2.30
2022-08-31T17:19:58.439Z,2.70
2022-08-31T17:22:32.670Z,2.10
2022-08-31T17:25:04.922Z,2.75
2022-08-31T17:27:35.876Z,2.80
2022-08-31T17:30:07.967Z,2.58
2022-08-31T17:32:44.486Z,3.22
2022-08-31T17:35:18.665Z,2.38
2022-08-31T17:37:49.086Z,2.40
2022-08-31T17:40:17.675Z,2.88
2022-08-31T17:42:46.781Z,2.80
2022-08-31T17:45:15.801Z,2.58
2022-08-31T17:47:43.982Z,2.97
2022-08-31T17:50:14.068Z,2.22
2022-08-31T17:52:43.626Z,2.65
2022-08-31T17:55:13.106Z,2.85
2022-08-31T17:57:42.645Z,2.30
2022-08-31T18:00:14.621Z,2.15
2022-08-31T18:02:44.019Z,2.42
2022-08-31T18:05:16.240Z,2.33
2022-08-31T18:07:47.258Z,2.25
2022-08-31T18:10:15.579Z,2.50
2022-08-31T18:12:44.136Z,2.45
2022-08-31T18:15:14.878Z,2.60
2022-08-31T18:17:43.978Z,2.22
2022-08-31T18:20:13.323Z,2.60
2022-08-31T18:22:42.089Z,3.05
2022-08-31T18:25:12.257Z,2.83
2022-08-31T18:27:41.102Z,2.92
2022-08-31T18:30:13.970Z,2.75
2022-08-31T18:32:47.290Z,2.47
2022-08-31T18:35:18.012Z,2.72
2022-08-31T18:37:46.973Z,2.50
2022-08-31T18:40:34.556Z,2.35
2022-08-31T18:43:19.937Z,2.60
2022-08-31T18:45:50.409Z,2.50
2022-08-31T18:48:25.161Z,2.70
2022-08-31T18:50:55.291Z,2.42
2022-08-31T18:53:28.653Z,2.60
2022-08-31T18:56:05.800Z,2.83
2022-08-31T18:58:34.551Z,2.60
2022-08-31T19:01:03.356Z,2.70
2022-08-31T19:03:32.652Z,2.67
2022-08-31T19:06:00.961Z,2.83
2022-08-31T19:08:30.549Z,2.53
2022-08-31T19:11:01.155Z,2.80
2022-08-31T19:13:32.122Z,2.55
2022-08-31T19:16:07.885Z,2.72
2022-08-31T19:18:44.174Z,2.83
2022-08-31T19:21:18.552Z,2.92
2022-08-31T19:23:47.329Z,3.00
2022-08-31T19:26:27.219Z,3.33
2022-08-31T19:28:55.852Z,3.15
2022-08-31T19:31:27.912Z,2.92
2022-08-31T19:33:57.543Z,2.97
2022-08-31T19:36:27.623Z,2.70
2022-08-31T19:38:56.933Z,2.85
2022-08-31T19:41:28.132Z,2.97
2022-08-31T19:44:07.861Z,3.17
2022-08-31T19:46:37.368Z,2.67
2022-08-31T19:49:07.622Z,3.05
2022-08-31T19:51:36.571Z,2.58
2022-08-31T19:54:09.036Z,2.50
2022-08-31T19:56:41.784Z,2.90
2022-08-31T19:59:11.032Z,2.53
2022-08-31T20:01:41.259Z,2.95
2022-08-31T20:04:16.507Z,3.05
2022-08-31T20:06:46.758Z,2.83
2022-08-31T20:09:15.168Z,2.90
2022-08-31T20:11:48.034Z,3.00
2022-08-31T20:14:17.415Z,2.65
2022-08-31T20:16:46.529Z,3.15
2022-08-31T20:19:19.381Z,2.80
2022-08-31T20:21:53.180Z,2.60
2022-08-31T20:24:24.428Z,2.80
2022-08-31T20:26:57.038Z,2.83
2022-08-31T20:29:25.436Z,2.90
2022-08-31T20:31:55.436Z,3.10
2022-08-31T20:34:28.514Z,2.80
2022-08-31T20:37:01.094Z,2.60
2022-08-31T20:39:31.956Z,3.13
2022-08-31T20:42:03.264Z,2.95
2022-08-31T20:44:33.755Z,3.30
2022-08-31T20:47:21.535Z,3.08
2022-08-31T20:49:55.226Z,3.53
2022-08-31T20:52:25.095Z,3.70
2022-08-31T20:55:01.296Z,3.58
2022-08-31T20:57:33.166Z,3.28
2022-08-31T21:00:03.016Z,3.50
2022-08-31T21:02:34.144Z,4.03
2022-08-31T21:05:27.108Z,3.10
2022-08-31T21:07:52.749Z,3.38
2022-08-31T21:10:36.542Z,3.15
2022-08-31T21:13:10.874Z,3.40
2022-08-31T21:15:44.294Z,3.08
2022-08-31T21:18:16.377Z,2.97
2022-08-31T21:20:44.755Z,3.17
2022-08-31T21:23:14.034Z,3.22
2022-08-31T21:25:45.252Z,3.20
2022-08-31T21:28:17.976Z,2.92
2022-08-31T21:30:49.695Z,3.20
2022-08-31T21:33:18.912Z,3.35
2022-08-31T21:35:48.178Z,3.50
2022-08-31T21:38:18.394Z,3.50
2022-08-31T21:40:50.494Z,2.97
2022-08-31T21:43:20.909Z,3.00
2022-08-31T21:45:55.235Z,3.13
2022-08-31T21:48:26.128Z,2.92
2022-08-31T21:50:54.703Z,3.00
2022-08-31T21:53:23.338Z,3.45
2022-08-31T21:55:51.904Z,2.80
2022-08-31T21:58:21.514Z,3.25
2022-08-31T22:00:50.542Z,3.22
2022-08-31T22:03:20.426Z,2.83
2022-08-31T22:05:49.197Z,3.10
2022-08-31T22:08:18.400Z,3.00
2022-08-31T22:10:49.045Z,3.10
2022-08-31T22:13:18.262Z,2.75
2022-08-31T22:15:48.190Z,3.20
2022-08-31T22:21:06.873Z,2.70
2022-08-31T22:23:36.266Z,3.05
2022-08-31T22:26:04.847Z,2.97
2022-08-31T22:28:33.952Z,3.20
2022-08-31T22:31:04.647Z,2.97
2022-08-31T22:33:32.855Z,2.88
2022-08-31T22:36:00.975Z,3.17
2022-08-31T22:38:29.605Z,2.80
2022-08-31T22:40:58.268Z,2.75
2022-08-31T22:43:26.383Z,3.08
2022-08-31T22:45:55.005Z,3.10
2022-08-31T22:48:24.988Z,3.03
2022-08-31T22:50:53.162Z,3.00
2022-08-31T22:53:21.305Z,3.00
2022-08-31T22:55:50.724Z,2.83
2022-08-31T22:58:19.445Z,2.88
2022-08-31T23:00:48.098Z,3.15
2022-08-31T23:03:16.661Z,3.08
2022-08-31T23:05:46.146Z,3.00
2022-08-31T23:08:17.495Z,2.75
2022-08-31T23:10:47.369Z,3.03
2022-08-31T23:13:15.576Z,2.90
2022-08-31T23:15:44.436Z,3.25
2022-08-31T23:18:13.544Z,2.67
2022-08-31T23:20:42.175Z,2.88
2022-08-31T23:23:12.174Z,2.58
2022-08-31T23:25:42.296Z,3.15
2022-08-31T23:28:11.922Z,3.50
2022-08-31T23:30:44.744Z,3.10
2022-08-31T23:33:13.414Z,2.78
2022-08-31T23:35:43.310Z,2.90
2022-08-31T23:38:13.243Z,3.00
2022-08-31T23:40:42.151Z,3.00
2022-08-31T23:43:11.147Z,2.85
2022-08-31T23:45:41.379Z,3.25
2022-08-31T23:48:10.158Z,3.30
2022-08-31T23:50:38.730Z,3.30
2022-08-31T23:53:12.337Z,3.05
2022-08-31T23:55:45.130Z,3.03
2022-08-31T23:58:14.590Z,3.10
